sensor_id;sensor_type;location;lat;lon;timestamp;temperature;humidity
4787;DHT22;62338;48.832;9.422;2023-05-28T00:00:54;14.10;99.90
4787;DHT22;62338;48.832;9.422;2023-05-28T00:02:58;14.00;99.90
4787;DHT22;62338;48.832;9.422;2023-05-28T00:05:01;14.10;99.90
4787;DHT22;62338;48.832;9.422;2023-05-28T00:07:03;14.00;99.90
4787;DHT22;62338;48.832;9.422;2023-05-28T00:09:05;14.00;99.90
4787;DHT22;62338;48.832;9.422;2023-05-28T00:11:08;14.00;99.90
4787;DHT22;62338;48.832;9.422;2023-05-28T00:13:10;14.00;99.90
4787;DHT22;62338;48.832;9.422;2023-05-28T00:15:12;14.00;99.90
4787;DHT22;62338;48.832;9.422;2023-05-28T00:17:14;14.00;99.90
4787;DHT22;62338;48.832;9.422;2023-05-28T00:19:17;14.00;99.90
4787;DHT22;62338;48.832;9.422;2023-05-28T00:21:19;14.00;99.90
4787;DHT22;62338;48.832;9.422;2023-05-28T00:23:21;14.00;99.90
4787;DHT22;62338;48.832;9.422;2023-05-28T00:25:23;13.90;99.90
4787;DHT22;62338;48.832;9.422;2023-05-28T00:27:25;13.90;99.90
4787;DHT22;62338;48.832;9.422;2023-05-28T00:29:27;14.00;99.90
4787;DHT22;62338;48.832;9.422;2023-05-28T00:31:28;14.00;99.90
4787;DHT22;62338;48.832;9.422;2023-05-28T00:33:31;13.90;99.90
4787;DHT22;62338;48.832;9.422;2023-05-28T00:35:32;13.90;99.90
4787;DHT22;62338;48.832;9.422;2023-05-28T00:37:34;13.90;99.90
4787;DHT22;62338;48.832;9.422;2023-05-28T00:39:36;13.90;99.90
4787;DHT22;62338;48.832;9.422;2023-05-28T00:41:38;13.90;99.90
4787;DHT22;62338;48.832;9.422;2023-05-28T00:43:42;13.80;99.90
4787;DHT22;62338;48.832;9.422;2023-05-28T00:45:43;13.80;99.90
4787;DHT22;62338;48.832;9.422;2023-05-28T00:47:45;13.80;99.90
4787;DHT22;62338;48.832;9.422;2023-05-28T00:49:47;13.80;99.90
4787;DHT22;62338;48.832;9.422;2023-05-28T00:51:50;13.80;99.90
4787;DHT22;62338;48.832;9.422;2023-05-28T00:53:52;13.80;99.90
4787;DHT22;62338;48.832;9.422;2023-05-28T00:55:54;13.80;99.90
4787;DHT22;62338;48.832;9.422;2023-05-28T00:57:57;13.70;99.90
4787;DHT22;62338;48.832;9.422;2023-05-28T01:00:10;13.70;99.90
4787;DHT22;62338;48.832;9.422;2023-05-28T01:02:12;13.70;99.90
4787;DHT22;62338;48.832;9.422;2023-05-28T01:04:15;13.70;1.00
4787;DHT22;62338;48.832;9.422;2023-05-28T01:06:18;13.70;1.00
4787;DHT22;62338;48.832;9.422;2023-05-28T01:08:22;13.60;99.90
4787;DHT22;62338;48.832;9.422;2023-05-28T01:10:24;13.60;1.00
4787;DHT22;62338;48.832;9.422;2023-05-28T01:12:26;13.60;1.00
4787;DHT22;62338;48.832;9.422;2023-05-28T01:14:28;13.50;1.00
4787;DHT22;62338;48.832;9.422;2023-05-28T01:16:31;13.40;1.00
4787;DHT22;62338;48.832;9.422;2023-05-28T01:18:33;13.40;1.00
4787;DHT22;62338;48.832;9.422;2023-05-28T01:20:35;13.30;1.00
4787;DHT22;62338;48.832;9.422;2023-05-28T01:22:38;13.30;1.00
4787;DHT22;62338;48.832;9.422;2023-05-28T01:24:43;13.20;1.00
4787;DHT22;62338;48.832;9.422;2023-05-28T01:26:48;13.10;1.00
4787;DHT22;62338;48.832;9.422;2023-05-28T01:28:51;13.00;1.00
4787;DHT22;62338;48.832;9.422;2023-05-28T01:30:53;13.00;1.00
4787;DHT22;62338;48.832;9.422;2023-05-28T01:32:55;12.90;21.30
4787;DHT22;62338;48.832;9.422;2023-05-28T01:34:56;12.90;1.00
4787;DHT22;62338;48.832;9.422;2023-05-28T01:37:04;12.80;99.90
4787;DHT22;62338;48.832;9.422;2023-05-28T01:39:07;12.80;24.00
4787;DHT22;62338;48.832;9.422;2023-05-28T01:41:11;12.80;99.90
4787;DHT22;62338;48.832;9.422;2023-05-28T01:43:14;12.70;99.90
4787;DHT22;62338;48.832;9.422;2023-05-28T01:45:16;12.70;82.00
4787;DHT22;62338;48.832;9.422;2023-05-28T01:47:19;12.60;99.90
4787;DHT22;62338;48.832;9.422;2023-05-28T01:49:21;12.60;99.90
4787;DHT22;62338;48.832;9.422;2023-05-28T01:51:24;12.50;99.90
4787;DHT22;62338;48.832;9.422;2023-05-28T01:53:26;12.50;99.90
4787;DHT22;62338;48.832;9.422;2023-05-28T01:55:27;12.40;99.90
4787;DHT22;62338;48.832;9.422;2023-05-28T01:57:29;12.40;99.90
4787;DHT22;62338;48.832;9.422;2023-05-28T01:59:31;12.30;99.90
4787;DHT22;62338;48.832;9.422;2023-05-28T02:01:33;12.30;1.00
4787;DHT22;62338;48.832;9.422;2023-05-28T02:03:36;12.20;1.00
4787;DHT22;62338;48.832;9.422;2023-05-28T02:05:38;12.10;1.00
4787;DHT22;62338;48.832;9.422;2023-05-28T02:07:41;12.10;1.00
4787;DHT22;62338;48.832;9.422;2023-05-28T02:09:42;12.00;1.00
4787;DHT22;62338;48.832;9.422;2023-05-28T02:11:44;12.00;1.00
4787;DHT22;62338;48.832;9.422;2023-05-28T02:13:46;11.90;1.00
4787;DHT22;62338;48.832;9.422;2023-05-28T02:15:48;11.90;1.00
4787;DHT22;62338;48.832;9.422;2023-05-28T02:17:50;12.00;1.00
4787;DHT22;62338;48.832;9.422;2023-05-28T02:19:52;11.90;89.20
4787;DHT22;62338;48.832;9.422;2023-05-28T02:21:54;11.90;1.00
4787;DHT22;62338;48.832;9.422;2023-05-28T02:23:57;11.80;99.90
4787;DHT22;62338;48.832;9.422;2023-05-28T02:25:59;11.70;99.90
4787;DHT22;62338;48.832;9.422;2023-05-28T02:28:03;11.70;99.90
4787;DHT22;62338;48.832;9.422;2023-05-28T02:30:05;11.60;99.90
4787;DHT22;62338;48.832;9.422;2023-05-28T02:32:07;11.60;99.90
4787;DHT22;62338;48.832;9.422;2023-05-28T02:34:09;11.60;99.90
4787;DHT22;62338;48.832;9.422;2023-05-28T02:36:11;11.60;99.90
4787;DHT22;62338;48.832;9.422;2023-05-28T02:38:13;11.60;99.90
4787;DHT22;62338;48.832;9.422;2023-05-28T02:40:15;11.50;99.90
4787;DHT22;62338;48.832;9.422;2023-05-28T02:42:17;11.60;1.00
4787;DHT22;62338;48.832;9.422;2023-05-28T02:44:19;11.60;1.00
4787;DHT22;62338;48.832;9.422;2023-05-28T02:46:21;11.50;1.00
4787;DHT22;62338;48.832;9.422;2023-05-28T02:48:23;11.50;99.90
4787;DHT22;62338;48.832;9.422;2023-05-28T02:50:48;11.50;99.90
4787;DHT22;62338;48.832;9.422;2023-05-28T02:52:51;11.50;99.90
4787;DHT22;62338;48.832;9.422;2023-05-28T02:54:53;11.50;99.90
4787;DHT22;62338;48.832;9.422;2023-05-28T02:56:55;11.40;99.90
4787;DHT22;62338;48.832;9.422;2023-05-28T02:58:57;11.30;99.90
4787;DHT22;62338;48.832;9.422;2023-05-28T03:00:59;11.30;1.00
4787;DHT22;62338;48.832;9.422;2023-05-28T03:03:00;11.30;1.00
4787;DHT22;62338;48.832;9.422;2023-05-28T03:05:02;11.30;1.00
4787;DHT22;62338;48.832;9.422;2023-05-28T03:07:04;11.30;1.00
4787;DHT22;62338;48.832;9.422;2023-05-28T03:09:06;11.30;99.90
4787;DHT22;62338;48.832;9.422;2023-05-28T03:11:08;11.40;1.00
4787;DHT22;62338;48.832;9.422;2023-05-28T03:13:10;11.40;1.00
4787;DHT22;62338;48.832;9.422;2023-05-28T03:15:11;11.30;99.90
4787;DHT22;62338;48.832;9.422;2023-05-28T03:17:14;11.40;99.90
4787;DHT22;62338;48.832;9.422;2023-05-28T03:19:16;11.30;1.00
4787;DHT22;62338;48.832;9.422;2023-05-28T03:21:17;11.30;1.00
4787;DHT22;62338;48.832;9.422;2023-05-28T03:23:19;11.30;1.00
4787;DHT22;62338;48.832;9.422;2023-05-28T03:25:21;11.30;1.00
4787;DHT22;62338;48.832;9.422;2023-05-28T03:27:23;11.30;1.00
4787;DHT22;62338;48.832;9.422;2023-05-28T03:29:25;11.20;9.90
4787;DHT22;62338;48.832;9.422;2023-05-28T03:31:28;11.30;1.00
4787;DHT22;62338;48.832;9.422;2023-05-28T03:33:30;11.30;1.00
4787;DHT22;62338;48.832;9.422;2023-05-28T03:35:32;11.40;1.00
4787;DHT22;62338;48.832;9.422;2023-05-28T03:37:34;11.30;66.10
4787;DHT22;62338;48.832;9.422;2023-05-28T03:39:36;11.30;8.90
4787;DHT22;62338;48.832;9.422;2023-05-28T03:41:38;11.20;99.90
4787;DHT22;62338;48.832;9.422;2023-05-28T03:43:39;11.20;78.40
4787;DHT22;62338;48.832;9.422;2023-05-28T03:45:41;11.20;99.90
4787;DHT22;62338;48.832;9.422;2023-05-28T03:47:43;11.20;99.90
4787;DHT22;62338;48.832;9.422;2023-05-28T03:49:45;11.20;99.90
4787;DHT22;62338;48.832;9.422;2023-05-28T03:51:46;11.20;99.90
4787;DHT22;62338;48.832;9.422;2023-05-28T03:53:49;11.30;1.00
4787;DHT22;62338;48.832;9.422;2023-05-28T03:55:51;11.30;1.00
4787;DHT22;62338;48.832;9.422;2023-05-28T03:57:53;11.30;1.00
4787;DHT22;62338;48.832;9.422;2023-05-28T03:59:55;11.30;1.00
4787;DHT22;62338;48.832;9.422;2023-05-28T04:01:58;11.30;1.00
4787;DHT22;62338;48.832;9.422;2023-05-28T04:04:00;11.30;99.90
4787;DHT22;62338;48.832;9.422;2023-05-28T04:06:03;11.30;1.00
4787;DHT22;62338;48.832;9.422;2023-05-28T04:08:05;11.30;1.00
4787;DHT22;62338;48.832;9.422;2023-05-28T04:10:07;11.40;1.00
4787;DHT22;62338;48.832;9.422;2023-05-28T04:12:09;11.40;1.00
4787;DHT22;62338;48.832;9.422;2023-05-28T04:14:12;11.40;1.00
4787;DHT22;62338;48.832;9.422;2023-05-28T04:16:14;11.50;1.00
4787;DHT22;62338;48.832;9.422;2023-05-28T04:18:16;11.60;99.90
4787;DHT22;62338;48.832;9.422;2023-05-28T04:20:18;11.70;99.90
4787;DHT22;62338;48.832;9.422;2023-05-28T04:22:19;11.80;99.90
4787;DHT22;62338;48.832;9.422;2023-05-28T04:24:22;11.90;99.90
4787;DHT22;62338;48.832;9.422;2023-05-28T04:26:24;11.90;99.90
4787;DHT22;62338;48.832;9.422;2023-05-28T04:28:26;12.00;99.90
4787;DHT22;62338;48.832;9.422;2023-05-28T04:30:29;12.00;1.00
4787;DHT22;62338;48.832;9.422;2023-05-28T04:32:31;12.10;99.90
4787;DHT22;62338;48.832;9.422;2023-05-28T04:34:32;12.10;1.00
4787;DHT22;62338;48.832;9.422;2023-05-28T04:36:35;12.10;6.50
4787;DHT22;62338;48.832;9.422;2023-05-28T04:38:38;12.10;99.90
4787;DHT22;62338;48.832;9.422;2023-05-28T04:40:41;12.20;99.90
4787;DHT22;62338;48.832;9.422;2023-05-28T04:42:43;12.20;1.00
4787;DHT22;62338;48.832;9.422;2023-05-28T04:44:45;12.20;99.90
4787;DHT22;62338;48.832;9.422;2023-05-28T04:46:47;12.20;99.90
4787;DHT22;62338;48.832;9.422;2023-05-28T04:48:49;12.20;99.90
4787;DHT22;62338;48.832;9.422;2023-05-28T04:50:52;12.20;1.00
4787;DHT22;62338;48.832;9.422;2023-05-28T04:52:55;12.30;1.00
4787;DHT22;62338;48.832;9.422;2023-05-28T04:54:57;12.30;1.00
4787;DHT22;62338;48.832;9.422;2023-05-28T04:56:59;12.30;1.00
4787;DHT22;62338;48.832;9.422;2023-05-28T04:59:01;12.30;1.00
4787;DHT22;62338;48.832;9.422;2023-05-28T05:01:06;12.30;26.00
4787;DHT22;62338;48.832;9.422;2023-05-28T05:03:09;12.30;1.00
4787;DHT22;62338;48.832;9.422;2023-05-28T05:05:11;12.40;1.00
4787;DHT22;62338;48.832;9.422;2023-05-28T05:07:14;12.40;99.90
4787;DHT22;62338;48.832;9.422;2023-05-28T05:09:16;12.40;1.00
4787;DHT22;62338;48.832;9.422;2023-05-28T05:11:18;12.50;99.90
4787;DHT22;62338;48.832;9.422;2023-05-28T05:13:19;12.50;1.00
4787;DHT22;62338;48.832;9.422;2023-05-28T05:15:21;12.50;69.40
4787;DHT22;62338;48.832;9.422;2023-05-28T05:17:23;12.60;1.00
4787;DHT22;62338;48.832;9.422;2023-05-28T05:19:25;12.60;1.00
4787;DHT22;62338;48.832;9.422;2023-05-28T05:21:26;12.70;99.90
4787;DHT22;62338;48.832;9.422;2023-05-28T05:23:28;12.70;99.90
4787;DHT22;62338;48.832;9.422;2023-05-28T05:25:30;12.80;1.00
4787;DHT22;62338;48.832;9.422;2023-05-28T05:27:35;12.80;1.00
4787;DHT22;62338;48.832;9.422;2023-05-28T05:29:36;12.80;99.90
4787;DHT22;62338;48.832;9.422;2023-05-28T05:31:38;12.90;46.00
4787;DHT22;62338;48.832;9.422;2023-05-28T05:33:40;13.00;99.90
4787;DHT22;62338;48.832;9.422;2023-05-28T05:35:43;13.00;1.00
4787;DHT22;62338;48.832;9.422;2023-05-28T05:37:44;13.00;1.00
4787;DHT22;62338;48.832;9.422;2023-05-28T05:39:46;13.10;59.00
4787;DHT22;62338;48.832;9.422;2023-05-28T05:41:48;13.20;1.00
4787;DHT22;62338;48.832;9.422;2023-05-28T05:43:49;13.20;1.00
4787;DHT22;62338;48.832;9.422;2023-05-28T05:45:51;13.30;1.00
4787;DHT22;62338;48.832;9.422;2023-05-28T05:47:54;13.30;99.90
4787;DHT22;62338;48.832;9.422;2023-05-28T05:49:56;13.40;99.90
4787;DHT22;62338;48.832;9.422;2023-05-28T05:51:58;13.50;1.00
4787;DHT22;62338;48.832;9.422;2023-05-28T05:54:00;13.50;1.00
4787;DHT22;62338;48.832;9.422;2023-05-28T05:56:02;13.60;99.90
4787;DHT22;62338;48.832;9.422;2023-05-28T05:58:03;13.80;99.90
4787;DHT22;62338;48.832;9.422;2023-05-28T06:00:06;13.80;1.00
4787;DHT22;62338;48.832;9.422;2023-05-28T06:02:10;13.90;1.00
4787;DHT22;62338;48.832;9.422;2023-05-28T06:04:12;14.00;99.90
4787;DHT22;62338;48.832;9.422;2023-05-28T06:06:14;14.00;1.00
4787;DHT22;62338;48.832;9.422;2023-05-28T06:08:16;14.10;99.90
4787;DHT22;62338;48.832;9.422;2023-05-28T06:10:17;14.20;3.60
4787;DHT22;62338;48.832;9.422;2023-05-28T06:12:19;14.20;1.00
4787;DHT22;62338;48.832;9.422;2023-05-28T06:14:21;14.30;68.60
4787;DHT22;62338;48.832;9.422;2023-05-28T06:16:23;14.40;1.00
4787;DHT22;62338;48.832;9.422;2023-05-28T06:18:26;14.50;1.00
4787;DHT22;62338;48.832;9.422;2023-05-28T06:20:27;14.60;1.00
4787;DHT22;62338;48.832;9.422;2023-05-28T06:22:30;14.70;1.00
4787;DHT22;62338;48.832;9.422;2023-05-28T06:24:32;14.80;66.10
4787;DHT22;62338;48.832;9.422;2023-05-28T06:26:33;14.90;1.00
4787;DHT22;62338;48.832;9.422;2023-05-28T06:28:35;15.00;1.00
4787;DHT22;62338;48.832;9.422;2023-05-28T06:30:37;15.10;99.90
4787;DHT22;62338;48.832;9.422;2023-05-28T06:32:39;15.20;99.90
4787;DHT22;62338;48.832;9.422;2023-05-28T06:34:41;15.30;1.00
4787;DHT22;62338;48.832;9.422;2023-05-28T06:36:43;15.40;99.90
4787;DHT22;62338;48.832;9.422;2023-05-28T06:38:45;15.50;99.90
4787;DHT22;62338;48.832;9.422;2023-05-28T06:40:46;15.60;99.90
4787;DHT22;62338;48.832;9.422;2023-05-28T06:42:49;15.70;1.00
4787;DHT22;62338;48.832;9.422;2023-05-28T06:44:51;15.70;99.90
4787;DHT22;62338;48.832;9.422;2023-05-28T06:46:53;15.90;99.90
4787;DHT22;62338;48.832;9.422;2023-05-28T06:48:54;16.00;99.90
4787;DHT22;62338;48.832;9.422;2023-05-28T06:50:57;16.20;1.00
4787;DHT22;62338;48.832;9.422;2023-05-28T06:53:00;16.80;1.00
4787;DHT22;62338;48.832;9.422;2023-05-28T06:55:03;18.10;99.90
4787;DHT22;62338;48.832;9.422;2023-05-28T06:57:06;19.50;1.00
4787;DHT22;62338;48.832;9.422;2023-05-28T06:59:08;20.60;99.90
4787;DHT22;62338;48.832;9.422;2023-05-28T07:01:10;21.70;99.90
4787;DHT22;62338;48.832;9.422;2023-05-28T07:03:12;22.70;99.90
4787;DHT22;62338;48.832;9.422;2023-05-28T07:05:14;23.40;99.90
4787;DHT22;62338;48.832;9.422;2023-05-28T07:07:17;24.40;51.20
4787;DHT22;62338;48.832;9.422;2023-05-28T07:09:21;25.10;11.90
4787;DHT22;62338;48.832;9.422;2023-05-28T07:11:22;25.60;1.00
4787;DHT22;62338;48.832;9.422;2023-05-28T07:13:24;25.40;1.00
4787;DHT22;62338;48.832;9.422;2023-05-28T07:15:26;25.80;1.00
4787;DHT22;62338;48.832;9.422;2023-05-28T07:17:28;26.10;1.00
4787;DHT22;62338;48.832;9.422;2023-05-28T07:19:30;26.30;1.00
4787;DHT22;62338;48.832;9.422;2023-05-28T07:21:32;26.50;1.00
4787;DHT22;62338;48.832;9.422;2023-05-28T07:23:34;26.50;1.00
4787;DHT22;62338;48.832;9.422;2023-05-28T07:25:37;26.80;1.00
4787;DHT22;62338;48.832;9.422;2023-05-28T07:27:38;27.10;1.00
4787;DHT22;62338;48.832;9.422;2023-05-28T07:29:41;27.00;1.00
4787;DHT22;62338;48.832;9.422;2023-05-28T07:31:43;27.10;1.00
4787;DHT22;62338;48.832;9.422;2023-05-28T07:33:45;27.20;1.00
4787;DHT22;62338;48.832;9.422;2023-05-28T07:35:47;27.40;1.00
4787;DHT22;62338;48.832;9.422;2023-05-28T07:37:49;27.40;1.00
4787;DHT22;62338;48.832;9.422;2023-05-28T07:39:51;27.70;1.00
4787;DHT22;62338;48.832;9.422;2023-05-28T07:41:53;27.40;1.00
4787;DHT22;62338;48.832;9.422;2023-05-28T07:43:57;27.60;1.00
4787;DHT22;62338;48.832;9.422;2023-05-28T07:45:58;27.50;1.00
4787;DHT22;62338;48.832;9.422;2023-05-28T07:48:01;27.30;1.00
4787;DHT22;62338;48.832;9.422;2023-05-28T07:50:03;27.40;1.00
4787;DHT22;62338;48.832;9.422;2023-05-28T07:52:06;27.60;1.00
4787;DHT22;62338;48.832;9.422;2023-05-28T07:54:07;28.20;1.00
4787;DHT22;62338;48.832;9.422;2023-05-28T07:56:09;28.00;1.00
4787;DHT22;62338;48.832;9.422;2023-05-28T07:58:12;28.70;1.00
4787;DHT22;62338;48.832;9.422;2023-05-28T08:00:14;28.70;1.00
4787;DHT22;62338;48.832;9.422;2023-05-28T08:02:17;28.90;1.00
4787;DHT22;62338;48.832;9.422;2023-05-28T08:04:19;29.40;1.00
4787;DHT22;62338;48.832;9.422;2023-05-28T08:06:22;28.90;1.00
4787;DHT22;62338;48.832;9.422;2023-05-28T08:08:24;28.60;1.00
4787;DHT22;62338;48.832;9.422;2023-05-28T08:10:25;28.50;1.00
4787;DHT22;62338;48.832;9.422;2023-05-28T08:12:27;28.10;1.00
4787;DHT22;62338;48.832;9.422;2023-05-28T08:14:29;28.60;1.00
4787;DHT22;62338;48.832;9.422;2023-05-28T08:16:31;28.70;1.00
4787;DHT22;62338;48.832;9.422;2023-05-28T08:18:32;28.20;1.00
4787;DHT22;62338;48.832;9.422;2023-05-28T08:20:35;28.60;1.00
4787;DHT22;62338;48.832;9.422;2023-05-28T08:22:37;29.40;1.00
4787;DHT22;62338;48.832;9.422;2023-05-28T08:24:39;29.40;1.00
4787;DHT22;62338;48.832;9.422;2023-05-28T08:26:41;29.80;1.00
4787;DHT22;62338;48.832;9.422;2023-05-28T08:28:43;30.00;1.00
4787;DHT22;62338;48.832;9.422;2023-05-28T08:30:45;30.20;1.00
4787;DHT22;62338;48.832;9.422;2023-05-28T08:32:47;30.40;1.00
4787;DHT22;62338;48.832;9.422;2023-05-28T08:34:49;30.30;1.00
4787;DHT22;62338;48.832;9.422;2023-05-28T08:36:51;30.30;1.00
4787;DHT22;62338;48.832;9.422;2023-05-28T08:38:53;30.40;1.00
4787;DHT22;62338;48.832;9.422;2023-05-28T08:40:56;30.80;1.00
4787;DHT22;62338;48.832;9.422;2023-05-28T08:42:58;31.00;1.00
4787;DHT22;62338;48.832;9.422;2023-05-28T08:44:59;30.70;1.00
4787;DHT22;62338;48.832;9.422;2023-05-28T08:47:01;31.60;1.00
4787;DHT22;62338;48.832;9.422;2023-05-28T08:49:03;30.30;1.00
4787;DHT22;62338;48.832;9.422;2023-05-28T08:51:06;30.50;1.00
4787;DHT22;62338;48.832;9.422;2023-05-28T08:53:10;30.40;1.00
4787;DHT22;62338;48.832;9.422;2023-05-28T08:55:14;30.10;1.00
4787;DHT22;62338;48.832;9.422;2023-05-28T08:57:17;30.00;1.00
4787;DHT22;62338;48.832;9.422;2023-05-28T08:59:20;30.10;1.00
4787;DHT22;62338;48.832;9.422;2023-05-28T09:01:22;30.40;1.00
4787;DHT22;62338;48.832;9.422;2023-05-28T09:03:24;30.70;1.00
4787;DHT22;62338;48.832;9.422;2023-05-28T09:05:26;30.70;1.00
4787;DHT22;62338;48.832;9.422;2023-05-28T09:07:28;30.70;1.00
4787;DHT22;62338;48.832;9.422;2023-05-28T09:09:30;30.70;1.00
4787;DHT22;62338;48.832;9.422;2023-05-28T09:11:32;30.00;1.00
4787;DHT22;62338;48.832;9.422;2023-05-28T09:13:34;29.80;1.00
4787;DHT22;62338;48.832;9.422;2023-05-28T09:15:35;30.00;1.00
4787;DHT22;62338;48.832;9.422;2023-05-28T09:17:38;30.20;1.00
4787;DHT22;62338;48.832;9.422;2023-05-28T09:19:50;30.40;1.00
4787;DHT22;62338;48.832;9.422;2023-05-28T09:21:57;30.50;1.00
4787;DHT22;62338;48.832;9.422;2023-05-28T09:24:01;30.50;1.00
4787;DHT22;62338;48.832;9.422;2023-05-28T09:26:08;30.20;1.00
4787;DHT22;62338;48.832;9.422;2023-05-28T09:28:11;30.20;1.00
4787;DHT22;62338;48.832;9.422;2023-05-28T09:30:17;30.80;1.00
4787;DHT22;62338;48.832;9.422;2023-05-28T09:32:19;31.10;1.00
4787;DHT22;62338;48.832;9.422;2023-05-28T09:34:27;31.50;1.00
4787;DHT22;62338;48.832;9.422;2023-05-28T09:36:30;31.30;1.00
4787;DHT22;62338;48.832;9.422;2023-05-28T09:38:41;31.40;1.00
4787;DHT22;62338;48.832;9.422;2023-05-28T09:40:44;31.10;1.00
4787;DHT22;62338;48.832;9.422;2023-05-28T09:42:50;31.40;1.00
4787;DHT22;62338;48.832;9.422;2023-05-28T09:44:53;31.50;1.00
4787;DHT22;62338;48.832;9.422;2023-05-28T09:46:55;31.50;1.00
4787;DHT22;62338;48.832;9.422;2023-05-28T09:48:58;31.50;1.00
4787;DHT22;62338;48.832;9.422;2023-05-28T09:51:04;31.20;1.00
4787;DHT22;62338;48.832;9.422;2023-05-28T09:53:08;31.40;1.00
4787;DHT22;62338;48.832;9.422;2023-05-28T09:55:16;31.10;1.00
4787;DHT22;62338;48.832;9.422;2023-05-28T09:57:30;30.90;1.00
4787;DHT22;62338;48.832;9.422;2023-05-28T09:59:33;30.70;1.00
4787;DHT22;62338;48.832;9.422;2023-05-28T10:01:41;31.10;1.00
4787;DHT22;62338;48.832;9.422;2023-05-28T10:04:02;31.20;1.00
4787;DHT22;62338;48.832;9.422;2023-05-28T10:06:15;31.10;1.00
4787;DHT22;62338;48.832;9.422;2023-05-28T10:08:19;31.30;1.00
4787;DHT22;62338;48.832;9.422;2023-05-28T10:10:23;31.60;1.00
4787;DHT22;62338;48.832;9.422;2023-05-28T10:12:31;31.90;1.00
4787;DHT22;62338;48.832;9.422;2023-05-28T10:14:34;32.20;1.00
4787;DHT22;62338;48.832;9.422;2023-05-28T10:16:37;32.20;1.00
4787;DHT22;62338;48.832;9.422;2023-05-28T10:18:44;32.40;1.00
4787;DHT22;62338;48.832;9.422;2023-05-28T10:20:46;32.40;1.00
4787;DHT22;62338;48.832;9.422;2023-05-28T10:22:49;31.90;1.00
4787;DHT22;62338;48.832;9.422;2023-05-28T10:24:53;32.10;1.00
4787;DHT22;62338;48.832;9.422;2023-05-28T10:26:56;31.40;1.00
4787;DHT22;62338;48.832;9.422;2023-05-28T10:28:59;30.80;1.00
4787;DHT22;62338;48.832;9.422;2023-05-28T10:31:07;31.00;1.00
4787;DHT22;62338;48.832;9.422;2023-05-28T10:33:15;30.90;1.00
4787;DHT22;62338;48.832;9.422;2023-05-28T10:35:18;31.10;1.00
4787;DHT22;62338;48.832;9.422;2023-05-28T10:37:23;31.40;1.00
4787;DHT22;62338;48.832;9.422;2023-05-28T10:39:26;31.40;1.00
4787;DHT22;62338;48.832;9.422;2023-05-28T10:41:32;31.20;1.00
4787;DHT22;62338;48.832;9.422;2023-05-28T10:45:40;31.50;1.00
4787;DHT22;62338;48.832;9.422;2023-05-28T10:47:51;32.00;1.00
4787;DHT22;62338;48.832;9.422;2023-05-28T10:52:22;32.10;1.00
4787;DHT22;62338;48.832;9.422;2023-05-28T10:54:44;31.60;1.00
4787;DHT22;62338;48.832;9.422;2023-05-28T10:57:15;31.30;1.00
4787;DHT22;62338;48.832;9.422;2023-05-28T10:59:45;31.10;1.00
4787;DHT22;62338;48.832;9.422;2023-05-28T11:02:02;31.50;1.00
4787;DHT22;62338;48.832;9.422;2023-05-28T11:04:06;31.00;1.00
4787;DHT22;62338;48.832;9.422;2023-05-28T11:06:10;31.10;1.00
4787;DHT22;62338;48.832;9.422;2023-05-28T11:08:13;30.80;1.00
4787;DHT22;62338;48.832;9.422;2023-05-28T11:10:17;31.30;1.00
4787;DHT22;62338;48.832;9.422;2023-05-28T11:12:20;30.80;1.00
4787;DHT22;62338;48.832;9.422;2023-05-28T11:14:23;30.60;1.00
4787;DHT22;62338;48.832;9.422;2023-05-28T11:16:25;30.20;1.00
4787;DHT22;62338;48.832;9.422;2023-05-28T11:18:27;30.80;1.00
4787;DHT22;62338;48.832;9.422;2023-05-28T11:20:30;30.70;1.00
4787;DHT22;62338;48.832;9.422;2023-05-28T11:22:34;31.10;1.00
4787;DHT22;62338;48.832;9.422;2023-05-28T11:24:55;30.90;1.00
4787;DHT22;62338;48.832;9.422;2023-05-28T11:27:00;31.20;1.00
4787;DHT22;62338;48.832;9.422;2023-05-28T11:29:03;31.20;1.00
4787;DHT22;62338;48.832;9.422;2023-05-28T11:31:09;30.90;1.00
4787;DHT22;62338;48.832;9.422;2023-05-28T11:33:11;31.30;1.00
4787;DHT22;62338;48.832;9.422;2023-05-28T11:35:16;30.90;1.00
4787;DHT22;62338;48.832;9.422;2023-05-28T11:37:24;30.70;1.00
4787;DHT22;62338;48.832;9.422;2023-05-28T11:39:27;31.00;1.00
4787;DHT22;62338;48.832;9.422;2023-05-28T11:41:30;30.90;1.00
4787;DHT22;62338;48.832;9.422;2023-05-28T11:43:33;30.40;1.00
4787;DHT22;62338;48.832;9.422;2023-05-28T11:45:39;30.60;1.00
4787;DHT22;62338;48.832;9.422;2023-05-28T11:47:41;30.90;1.00
4787;DHT22;62338;48.832;9.422;2023-05-28T11:49:49;30.80;1.00
4787;DHT22;62338;48.832;9.422;2023-05-28T11:51:52;30.90;1.00
4787;DHT22;62338;48.832;9.422;2023-05-28T11:53:55;31.00;1.00
4787;DHT22;62338;48.832;9.422;2023-05-28T11:55:57;31.00;1.00
4787;DHT22;62338;48.832;9.422;2023-05-28T11:57:59;30.70;1.00
4787;DHT22;62338;48.832;9.422;2023-05-28T12:00:10;30.50;1.00
4787;DHT22;62338;48.832;9.422;2023-05-28T12:02:15;30.10;1.00
4787;DHT22;62338;48.832;9.422;2023-05-28T12:04:22;30.40;1.00
4787;DHT22;62338;48.832;9.422;2023-05-28T12:06:31;30.50;1.00
4787;DHT22;62338;48.832;9.422;2023-05-28T12:08:42;30.70;1.00
4787;DHT22;62338;48.832;9.422;2023-05-28T12:10:44;30.60;1.00
4787;DHT22;62338;48.832;9.422;2023-05-28T12:12:49;30.90;1.00
4787;DHT22;62338;48.832;9.422;2023-05-28T12:14:51;30.80;1.00
4787;DHT22;62338;48.832;9.422;2023-05-28T12:16:55;31.10;1.00
4787;DHT22;62338;48.832;9.422;2023-05-28T12:19:04;31.20;1.00
4787;DHT22;62338;48.832;9.422;2023-05-28T12:21:13;31.30;1.00
4787;DHT22;62338;48.832;9.422;2023-05-28T12:23:21;31.40;1.00
4787;DHT22;62338;48.832;9.422;2023-05-28T12:25:23;31.80;1.00
4787;DHT22;62338;48.832;9.422;2023-05-28T12:27:26;32.10;1.00
4787;DHT22;62338;48.832;9.422;2023-05-28T12:29:28;32.10;1.00
4787;DHT22;62338;48.832;9.422;2023-05-28T12:31:31;32.10;1.00
4787;DHT22;62338;48.832;9.422;2023-05-28T12:33:34;31.80;1.00
4787;DHT22;62338;48.832;9.422;2023-05-28T12:35:36;31.70;1.00
4787;DHT22;62338;48.832;9.422;2023-05-28T12:37:39;31.90;1.00
4787;DHT22;62338;48.832;9.422;2023-05-28T12:39:42;31.90;1.00
4787;DHT22;62338;48.832;9.422;2023-05-28T12:41:44;31.70;1.00
4787;DHT22;62338;48.832;9.422;2023-05-28T12:43:47;32.10;1.00
4787;DHT22;62338;48.832;9.422;2023-05-28T12:45:50;31.90;1.00
4787;DHT22;62338;48.832;9.422;2023-05-28T12:47:52;31.90;1.00
4787;DHT22;62338;48.832;9.422;2023-05-28T12:49:55;31.70;1.00
4787;DHT22;62338;48.832;9.422;2023-05-28T12:51:57;31.40;1.00
4787;DHT22;62338;48.832;9.422;2023-05-28T12:53:59;31.40;1.00
4787;DHT22;62338;48.832;9.422;2023-05-28T12:56:03;31.40;1.00
4787;DHT22;62338;48.832;9.422;2023-05-28T12:58:05;30.80;1.00
4787;DHT22;62338;48.832;9.422;2023-05-28T13:00:08;30.70;1.00
4787;DHT22;62338;48.832;9.422;2023-05-28T13:02:13;31.10;1.00
4787;DHT22;62338;48.832;9.422;2023-05-28T13:04:16;31.00;1.00
4787;DHT22;62338;48.832;9.422;2023-05-28T13:06:18;30.50;1.00
4787;DHT22;62338;48.832;9.422;2023-05-28T13:08:20;30.70;1.00
4787;DHT22;62338;48.832;9.422;2023-05-28T13:10:24;31.50;1.00
4787;DHT22;62338;48.832;9.422;2023-05-28T13:12:28;31.20;1.00
4787;DHT22;62338;48.832;9.422;2023-05-28T13:14:30;32.00;1.00
4787;DHT22;62338;48.832;9.422;2023-05-28T13:16:34;31.90;1.00
4787;DHT22;62338;48.832;9.422;2023-05-28T13:18:37;32.00;1.00
4787;DHT22;62338;48.832;9.422;2023-05-28T13:20:39;31.80;1.00
4787;DHT22;62338;48.832;9.422;2023-05-28T13:22:43;31.90;1.00
4787;DHT22;62338;48.832;9.422;2023-05-28T13:24:46;31.70;1.00